Time;durP1;ratioP1;P1;durP2;ratioP2;P2;SDS_P1;SDS_P2;PMS_P1;PMS_P2;Temp;Humidity;BMP_temperature;BMP_pressure;BME280_temperature;BME280_humidity;BME280_pressure;Samples;Min_cycle;Max_cycle;Signal;HPM_P1;HPM_P2
2021/05/16 00:02:19;;;;;;;2.70;0.83;;;15.20;53.20;;;;;;5004564;28;20499;-42
2021/05/16 00:04:44;;;;;;;1.80;0.90;;;15.30;53.00;;;;;;5000245;28;20596;-47
2021/05/16 00:07:10;;;;;;;1.17;1.07;;;15.40;52.80;;;;;;5003176;28;20922;-45
2021/05/16 00:09:36;;;;;;;3.50;0.90;;;15.30;52.80;;;;;;5010548;28;20272;-44
2021/05/16 00:12:02;;;;;;;1.60;0.90;;;15.10;53.30;;;;;;5005498;28;20186;-43
2021/05/16 00:14:28;;;;;;;1.00;0.90;;;15.00;53.40;;;;;;5006890;28;20221;-43
2021/05/16 00:16:54;;;;;;;1.40;0.90;;;14.70;54.10;;;;;;5011829;28;20550;-42
2021/05/16 00:19:20;;;;;;;4.73;1.03;;;14.80;54.20;;;;;;5006862;28;20458;-46
2021/05/16 00:21:47;;;;;;;2.40;1.00;;;14.70;54.10;;;;;;5013383;28;20548;-45
2021/05/16 00:24:13;;;;;;;0.80;0.70;;;14.70;54.30;;;;;;5007824;28;20456;-45
2021/05/16 00:26:39;;;;;;;0.73;0.70;;;14.80;54.20;;;;;;4997713;28;20450;-46
2021/05/16 00:29:05;;;;;;;3.30;1.30;;;14.80;54.00;;;;;;5011290;28;20502;-43
2021/05/16 00:31:30;;;;;;;2.30;1.00;;;14.50;54.30;;;;;;5011238;28;20281;-42
2021/05/16 00:33:56;;;;;;;2.00;0.90;;;14.60;54.70;;;;;;5009762;28;20261;-42
2021/05/16 00:36:23;;;;;;;3.83;0.80;;;14.60;54.70;;;;;;5007030;28;20233;-45
2021/05/16 00:38:49;;;;;;;2.47;1.03;;;14.60;54.80;;;;;;5009275;28;20564;-44
2021/05/16 00:41:14;;;;;;;1.10;0.90;;;14.60;54.70;;;;;;5010410;28;20536;-44
2021/05/16 00:43:40;;;;;;;2.83;1.17;;;14.40;55.10;;;;;;5009816;28;20198;-42
2021/05/16 00:46:09;;;;;;;3.83;1.30;;;14.40;55.10;;;;;;5012404;28;20189;-43
2021/05/16 00:48:38;;;;;;;2.00;1.03;;;14.30;55.30;;;;;;5007932;28;20203;-46
2021/05/16 00:51:04;;;;;;;1.63;0.90;;;14.40;55.40;;;;;;5004615;28;20460;-41
2021/05/16 00:53:31;;;;;;;2.20;1.07;;;14.50;55.20;;;;;;5006290;28;21107;-44
2021/05/16 00:55:57;;;;;;;3.47;1.30;;;14.40;55.30;;;;;;5005986;28;20878;-43
2021/05/16 00:58:24;;;;;;;2.13;0.73;;;14.40;55.40;;;;;;5008167;28;20531;-43
2021/05/16 01:00:50;;;;;;;1.10;1.00;;;14.50;55.80;;;;;;5007158;28;20452;-44
2021/05/16 01:03:16;;;;;;;1.17;0.70;;;14.60;56.20;;;;;;5011186;28;20429;-44
2021/05/16 01:05:43;;;;;;;3.20;0.90;;;14.40;56.50;;;;;;5008825;28;20487;-43
2021/05/16 01:08:09;;;;;;;1.20;0.80;;;14.60;57.00;;;;;;4998968;28;20853;-44
2021/05/16 01:10:35;;;;;;;2.77;1.57;;;14.60;56.90;;;;;;5009936;28;22264;-43
2021/05/16 01:13:04;;;;;;;0.83;0.83;;;14.50;57.40;;;;;;5006104;28;20527;-42
2021/05/16 01:15:31;;;;;;;1.27;1.17;;;14.60;57.50;;;;;;5012943;28;20812;-44
2021/05/16 01:17:56;;;;;;;1.83;0.87;;;14.60;57.60;;;;;;5011065;28;20470;-43
2021/05/16 01:20:26;;;;;;;1.60;1.10;;;14.80;57.20;;;;;;5009132;28;20452;-42
2021/05/16 01:23:07;;;;;;;3.03;1.00;;;14.70;56.90;;;;;;5003033;28;20253;-42
2021/05/16 01:25:36;;;;;;;2.27;0.83;;;14.40;57.60;;;;;;5006505;28;20507;-44
2021/05/16 01:28:03;;;;;;;1.03;0.80;;;14.40;57.40;;;;;;5009852;28;20444;-42
2021/05/16 01:30:29;;;;;;;2.40;1.43;;;14.70;57.30;;;;;;5007974;28;20441;-43
2021/05/16 01:32:55;;;;;;;2.10;1.03;;;14.70;57.00;;;;;;5005150;28;20445;-44
2021/05/16 01:35:22;;;;;;;1.83;0.90;;;14.80;56.90;;;;;;5008006;28;20440;-41
2021/05/16 01:37:49;;;;;;;2.40;1.23;;;14.50;56.80;;;;;;5010936;28;20604;-42
2021/05/16 01:40:17;;;;;;;2.20;1.03;;;14.30;57.00;;;;;;5004271;28;20448;-42
2021/05/16 01:42:48;;;;;;;2.00;0.93;;;14.50;57.50;;;;;;5009792;28;20448;-45
2021/05/16 01:45:15;;;;;;;6.50;1.67;;;14.50;56.90;;;;;;5007259;28;20944;-44
2021/05/16 01:47:41;;;;;;;1.43;1.10;;;14.50;57.20;;;;;;5007927;28;20532;-41
2021/05/16 01:50:10;;;;;;;1.83;1.03;;;14.50;56.80;;;;;;5008708;28;21063;-43
2021/05/16 01:52:38;;;;;;;0.83;0.80;;;14.70;56.80;;;;;;5007451;28;20440;-42
2021/05/16 01:55:05;;;;;;;2.30;1.20;;;14.80;56.50;;;;;;5012101;28;20461;-42
2021/05/16 01:57:31;;;;;;;2.33;1.17;;;14.50;56.40;;;;;;5003153;28;20535;-43
2021/05/16 01:59:57;;;;;;;3.80;1.10;;;14.40;56.90;;;;;;5005309;28;20854;-42
2021/05/16 02:02:23;;;;;;;4.97;1.00;;;14.70;56.60;;;;;;5009263;28;20194;-44
2021/05/16 02:04:50;;;;;;;2.37;1.17;;;15.00;56.10;;;;;;5010475;28;20449;-41
2021/05/16 02:07:16;;;;;;;3.47;1.50;;;15.00;55.90;;;;;;5002272;28;20468;-43
2021/05/16 02:09:42;;;;;;;4.00;1.13;;;15.00;55.70;;;;;;5001559;28;20448;-42
2021/05/16 02:12:08;;;;;;;2.97;1.07;;;15.10;55.50;;;;;;5003720;28;20440;-42
2021/05/16 02:14:34;;;;;;;1.10;0.93;;;15.20;55.20;;;;;;5009054;28;20197;-43
2021/05/16 02:17:02;;;;;;;4.43;1.10;;;15.20;55.50;;;;;;5007787;28;20493;-41
2021/05/16 02:19:28;;;;;;;5.93;1.53;;;15.20;55.30;;;;;;5009245;28;20639;-47
2021/05/16 02:21:54;;;;;;;5.73;0.90;;;15.20;55.40;;;;;;5008405;28;20429;-41
2021/05/16 02:24:20;;;;;;;3.00;1.10;;;15.00;55.60;;;;;;5007824;28;20286;-43
2021/05/16 02:26:47;;;;;;;3.03;1.20;;;15.10;55.80;;;;;;5008133;28;20469;-46
2021/05/16 02:29:14;;;;;;;1.70;1.30;;;15.10;55.90;;;;;;5003677;28;20499;-42
2021/05/16 02:31:40;;;;;;;2.60;1.00;;;15.10;55.70;;;;;;5009872;28;20786;-42
2021/05/16 02:34:07;;;;;;;2.53;1.13;;;15.00;56.60;;;;;;5007233;28;20479;-42
2021/05/16 02:36:33;;;;;;;2.80;1.30;;;15.00;56.20;;;;;;5010573;28;20529;-45
2021/05/16 02:38:59;;;;;;;2.90;1.17;;;15.20;56.20;;;;;;5002199;28;20508;-42
2021/05/16 02:41:25;;;;;;;1.50;0.87;;;15.30;55.90;;;;;;5006063;28;20568;-43
2021/05/16 02:43:51;;;;;;;1.30;1.00;;;15.40;55.90;;;;;;5001684;28;20830;-42
2021/05/16 02:46:16;;;;;;;2.40;1.50;;;15.20;56.20;;;;;;5010694;28;20191;-42
2021/05/16 02:48:42;;;;;;;2.83;1.33;;;14.80;57.10;;;;;;5007324;28;20447;-42
2021/05/16 02:51:08;;;;;;;5.37;1.30;;;14.70;58.10;;;;;;5007658;28;20873;-41
2021/05/16 02:53:34;;;;;;;1.83;1.20;;;14.60;58.50;;;;;;5006010;28;20682;-42
2021/05/16 02:56:00;;;;;;;3.17;1.33;;;14.50;59.20;;;;;;5005333;28;20232;-42
2021/05/16 02:58:25;;;;;;;4.00;1.23;;;14.50;59.50;;;;;;5006981;28;20440;-41
2021/05/16 03:00:52;;;;;;;2.77;1.30;;;14.60;59.10;;;;;;5008356;28;20197;-42
2021/05/16 03:03:17;;;;;;;2.10;1.07;;;14.50;59.50;;;;;;5006373;28;20198;-42
2021/05/16 03:05:43;;;;;;;2.20;1.17;;;14.40;60.00;;;;;;5008151;28;20962;-41
2021/05/16 03:08:08;;;;;;;2.00;1.00;;;14.30;59.90;;;;;;5009039;28;20202;-43
2021/05/16 03:10:34;;;;;;;3.07;1.30;;;14.10;60.40;;;;;;5009986;28;20681;-44
2021/05/16 03:13:00;;;;;;;1.10;1.00;;;14.30;60.90;;;;;;5004542;28;20199;-42
2021/05/16 03:15:25;;;;;;;2.07;1.17;;;14.30;61.10;;;;;;5001496;28;20190;-43
2021/05/16 03:17:51;;;;;;;3.67;1.50;;;14.00;62.00;;;;;;5003131;28;20230;-43
2021/05/16 03:20:17;;;;;;;2.10;1.07;;;14.00;62.70;;;;;;5000500;28;20190;-41
2021/05/16 03:22:43;;;;;;;2.13;1.40;;;14.10;63.10;;;;;;5004803;28;20225;-44
2021/05/16 03:25:10;;;;;;;3.60;1.00;;;14.20;62.80;;;;;;5004878;28;20964;-41
2021/05/16 03:27:36;;;;;;;4.37;1.20;;;14.10;63.40;;;;;;4998922;28;20797;-41
2021/05/16 03:30:04;;;;;;;2.13;1.10;;;14.20;63.50;;;;;;4996549;28;20471;-41
2021/05/16 03:32:30;;;;;;;1.70;1.27;;;14.40;63.30;;;;;;5003911;28;20197;-42
2021/05/16 03:34:55;;;;;;;2.47;1.43;;;14.70;62.40;;;;;;5000750;28;20440;-42
2021/05/16 03:37:21;;;;;;;2.13;1.40;;;14.60;61.40;;;;;;5005123;28;20222;-42
2021/05/16 03:39:47;;;;;;;4.30;2.23;;;14.70;61.40;;;;;;5004731;28;21058;-41
2021/05/16 03:42:12;;;;;;;1.30;1.03;;;14.80;60.60;;;;;;5007733;28;20229;-41
2021/05/16 03:44:38;;;;;;;5.03;1.20;;;14.60;60.60;;;;;;5009753;28;20225;-42
2021/05/16 03:47:03;;;;;;;1.43;1.10;;;14.60;61.20;;;;;;4998552;28;20195;-42
2021/05/16 03:49:29;;;;;;;2.37;1.37;;;14.70;61.10;;;;;;5008950;28;20193;-43
2021/05/16 03:51:55;;;;;;;1.73;0.90;;;14.90;60.50;;;;;;5007941;28;20205;-42
2021/05/16 03:54:21;;;;;;;2.07;1.00;;;14.90;60.40;;;;;;5011913;28;20198;-41
2021/05/16 03:56:46;;;;;;;1.63;1.20;;;14.80;60.60;;;;;;5013322;28;20225;-42
2021/05/16 03:59:12;;;;;;;2.40;1.13;;;14.80;60.60;;;;;;5011537;28;20561;-41
2021/05/16 04:01:38;;;;;;;1.57;1.10;;;14.80;60.20;;;;;;5011239;28;20212;-42
2021/05/16 04:04:04;;;;;;;1.57;1.00;;;14.70;60.60;;;;;;5006297;28;20199;-41
2021/05/16 04:06:30;;;;;;;1.63;1.37;;;14.70;60.90;;;;;;5008266;28;21044;-41
2021/05/16 04:08:55;;;;;;;1.07;0.90;;;14.90;60.50;;;;;;5007417;28;20467;-41
2021/05/16 04:11:21;;;;;;;3.00;1.77;;;14.90;60.10;;;;;;5010440;28;20198;-42
2021/05/16 04:13:47;;;;;;;4.10;1.20;;;15.00;60.20;;;;;;5012880;28;20280;-41
2021/05/16 04:16:13;;;;;;;3.43;1.10;;;14.90;60.40;;;;;;5011881;28;20233;-43
2021/05/16 04:18:38;;;;;;;3.80;1.40;;;14.90;60.30;;;;;;5006050;28;20445;-42
2021/05/16 04:21:05;;;;;;;1.77;1.33;;;14.80;60.40;;;;;;5009215;28;20818;-42
2021/05/16 04:23:32;;;;;;;3.53;1.30;;;14.60;60.60;;;;;;5012868;28;20198;-42
2021/05/16 04:25:57;;;;;;;3.97;1.17;;;14.50;61.50;;;;;;5002056;28;20516;-42
2021/05/16 04:28:23;;;;;;;4.40;1.30;;;14.60;62.00;;;;;;5010138;28;20457;-42
2021/05/16 04:30:49;;;;;;;5.27;1.10;;;14.40;62.60;;;;;;5012722;28;20209;-41
2021/05/16 04:33:15;;;;;;;3.30;1.30;;;14.50;63.20;;;;;;5007894;28;20198;-42
2021/05/16 04:35:41;;;;;;;1.60;1.00;;;14.50;63.40;;;;;;5006335;28;20218;-41
2021/05/16 04:38:07;;;;;;;2.40;1.20;;;14.50;63.10;;;;;;5010194;28;20484;-41
2021/05/16 04:40:33;;;;;;;4.27;1.40;;;14.50;62.60;;;;;;5005053;28;20449;-41
2021/05/16 04:42:58;;;;;;;1.77;1.20;;;14.60;63.00;;;;;;5009232;28;20178;-41
2021/05/16 04:45:24;;;;;;;1.13;0.97;;;14.80;62.60;;;;;;5006923;28;20448;-41
2021/05/16 04:47:50;;;;;;;2.60;1.37;;;14.90;62.30;;;;;;5009041;28;20198;-41
2021/05/16 04:50:18;;;;;;;2.60;1.00;;;15.00;61.90;;;;;;5009311;28;20553;-42
2021/05/16 04:52:44;;;;;;;1.17;1.07;;;15.20;61.30;;;;;;5007431;28;20519;-41
2021/05/16 04:55:11;;;;;;;1.10;1.00;;;15.40;60.70;;;;;;5011785;28;20436;-41
2021/05/16 04:57:37;;;;;;;1.13;0.97;;;15.60;60.30;;;;;;5013139;28;20524;-42
2021/05/16 05:00:05;;;;;;;1.30;0.90;;;15.70;60.10;;;;;;5008807;28;20476;-41
2021/05/16 05:02:36;;;;;;;0.73;0.73;;;15.70;59.90;;;;;;5007344;28;20221;-41
2021/05/16 05:05:03;;;;;;;2.20;1.00;;;15.80;59.70;;;;;;4997200;28;20532;-42
2021/05/16 05:07:30;;;;;;;2.23;1.40;;;15.90;59.50;;;;;;5012273;28;20429;-41
2021/05/16 05:09:55;;;;;;;6.70;1.87;;;15.90;59.30;;;;;;5009085;28;20591;-40
2021/05/16 05:12:21;;;;;;;4.70;1.00;;;15.90;59.20;;;;;;5005972;28;20972;-40
2021/05/16 05:14:47;;;;;;;1.30;1.00;;;16.10;59.70;;;;;;5012809;28;20210;-40
2021/05/16 05:17:12;;;;;;;0.67;0.67;;;16.30;59.40;;;;;;5009019;28;20233;-40
2021/05/16 05:19:38;;;;;;;1.00;0.90;;;16.40;59.10;;;;;;5008947;28;20209;-40
2021/05/16 05:22:03;;;;;;;1.30;1.00;;;16.50;58.80;;;;;;5003925;28;20190;-40
2021/05/16 05:24:29;;;;;;;1.50;1.07;;;16.60;58.20;;;;;;5003233;28;20273;-40
2021/05/16 05:26:55;;;;;;;1.87;0.90;;;16.70;58.20;;;;;;5000063;28;20273;-40
2021/05/16 05:29:20;;;;;;;2.50;1.03;;;16.70;58.00;;;;;;5009650;28;20208;-40
2021/05/16 05:31:46;;;;;;;2.90;0.83;;;16.80;57.60;;;;;;5009400;28;20202;-40
2021/05/16 05:34:12;;;;;;;0.83;0.83;;;16.70;57.30;;;;;;5007239;28;20195;-40
2021/05/16 05:36:38;;;;;;;1.93;0.90;;;16.70;57.20;;;;;;5005136;28;20229;-40
2021/05/16 05:39:05;;;;;;;2.20;1.10;;;16.70;57.30;;;;;;5007635;28;20472;-40
2021/05/16 05:41:31;;;;;;;1.00;0.90;;;16.60;57.30;;;;;;5009051;28;20194;-41
2021/05/16 05:43:56;;;;;;;3.03;1.07;;;16.20;57.50;;;;;;5009211;28;20452;-40
2021/05/16 05:46:22;;;;;;;1.60;0.83;;;16.10;57.90;;;;;;5006246;28;20429;-40
2021/05/16 05:48:48;;;;;;;2.07;1.00;;;16.10;58.30;;;;;;5010376;28;20198;-40
2021/05/16 05:51:14;;;;;;;2.97;1.10;;;15.90;58.70;;;;;;5003057;28;20203;-40
2021/05/16 05:53:42;;;;;;;3.33;0.83;;;15.90;58.80;;;;;;4996207;28;20273;-40
2021/05/16 05:56:08;;;;;;;1.97;1.10;;;15.70;59.10;;;;;;5004923;28;20218;-40
2021/05/16 05:58:35;;;;;;;1.70;0.90;;;15.20;60.30;;;;;;5010434;28;20439;-40
2021/05/16 06:01:01;;;;;;;0.70;0.70;;;15.10;61.60;;;;;;5009749;28;20252;-40
2021/05/16 06:03:26;;;;;;;1.80;0.70;;;15.00;62.40;;;;;;5003355;28;20524;-40
2021/05/16 06:05:52;;;;;;;1.73;0.90;;;15.00;62.70;;;;;;5005096;28;20520;-40
2021/05/16 06:08:19;;;;;;;2.80;1.17;;;14.90;63.90;;;;;;5009978;28;20707;-40
2021/05/16 06:10:44;;;;;;;1.20;0.93;;;15.10;63.30;;;;;;5004768;28;20562;-40
2021/05/16 06:13:10;;;;;;;2.10;0.77;;;15.20;63.00;;;;;;4997510;28;20448;-40
2021/05/16 06:15:35;;;;;;;3.33;1.40;;;15.40;62.50;;;;;;5002429;28;20198;-40
2021/05/16 06:18:01;;;;;;;1.33;0.90;;;15.50;62.20;;;;;;5001908;28;20198;-41
2021/05/16 06:20:28;;;;;;;1.43;1.10;;;15.50;61.80;;;;;;5006304;28;20205;-40
2021/05/16 06:22:54;;;;;;;2.80;1.13;;;15.60;61.80;;;;;;5004942;28;21163;-40
2021/05/16 06:25:19;;;;;;;1.43;1.10;;;15.70;61.60;;;;;;5010020;28;20495;-40
2021/05/16 06:27:45;;;;;;;2.70;0.80;;;15.80;61.60;;;;;;5006860;28;20665;-40
2021/05/16 06:30:11;;;;;;;2.30;1.03;;;15.80;62.10;;;;;;5011613;28;20248;-40
2021/05/16 06:32:39;;;;;;;0.83;0.80;;;16.00;62.00;;;;;;5011553;28;20547;-40
2021/05/16 06:35:06;;;;;;;1.83;0.90;;;16.10;61.20;;;;;;5011478;28;20425;-40
2021/05/16 06:37:31;;;;;;;2.17;1.07;;;16.20;61.20;;;;;;5008447;28;20477;-41
2021/05/16 06:39:57;;;;;;;1.20;0.80;;;16.20;60.60;;;;;;5010939;28;20436;-40
2021/05/16 06:42:22;;;;;;;4.20;1.00;;;16.00;60.00;;;;;;5010800;28;20228;-40
2021/05/16 06:44:48;;;;;;;2.37;0.97;;;16.10;59.80;;;;;;5011185;28;20332;-40
2021/05/16 06:47:13;;;;;;;2.97;1.07;;;16.30;59.70;;;;;;5010451;28;20190;-40
2021/05/16 06:49:39;;;;;;;1.77;0.80;;;16.30;59.70;;;;;;5002423;28;20683;-40
2021/05/16 06:52:05;;;;;;;1.03;0.93;;;16.50;60.40;;;;;;4991605;28;20198;-40
2021/05/16 06:54:31;;;;;;;3.93;1.00;;;16.60;59.40;;;;;;4992368;28;20202;-41
2021/05/16 06:56:57;;;;;;;1.73;1.00;;;16.60;59.10;;;;;;4991347;28;20237;-40
2021/05/16 06:59:22;;;;;;;2.67;0.97;;;16.70;59.40;;;;;;5000582;28;20425;-40
2021/05/16 07:01:48;;;;;;;0.80;0.80;;;16.80;59.40;;;;;;4996716;28;20194;-41
2021/05/16 07:04:14;;;;;;;1.13;1.00;;;16.80;58.40;;;;;;4991070;28;20194;-40
2021/05/16 07:06:39;;;;;;;3.03;1.20;;;16.80;57.60;;;;;;4991464;28;20248;-40
2021/05/16 07:09:05;;;;;;;3.10;1.03;;;16.80;57.60;;;;;;4991763;28;20190;-41
2021/05/16 07:11:31;;;;;;;2.20;0.90;;;16.80;57.30;;;;;;4992032;28;20705;-40
2021/05/16 07:13:56;;;;;;;2.20;1.13;;;16.80;57.30;;;;;;4992751;28;20496;-41
2021/05/16 07:16:22;;;;;;;2.53;2.20;;;16.90;56.60;;;;;;5011063;28;20228;-41
2021/05/16 07:18:48;;;;;;;0.80;0.70;;;16.90;56.90;;;;;;5000237;28;20198;-41
2021/05/16 07:21:14;;;;;;;5.60;1.30;;;17.10;57.50;;;;;;4992130;28;20253;-40
2021/05/16 07:23:39;;;;;;;1.03;0.70;;;17.20;56.90;;;;;;4995109;28;20208;-40
2021/05/16 07:26:05;;;;;;;3.93;0.97;;;17.30;56.50;;;;;;5003492;28;20236;-40
2021/05/16 07:28:31;;;;;;;1.37;1.00;;;17.20;56.70;;;;;;5012805;28;20225;-41
2021/05/16 07:30:57;;;;;;;1.93;1.33;;;17.20;56.10;;;;;;5007879;28;20597;-41
2021/05/16 07:33:23;;;;;;;1.10;0.73;;;17.30;55.50;;;;;;4995253;28;20264;-42
2021/05/16 07:35:48;;;;;;;2.00;0.70;;;17.30;55.60;;;;;;4996023;28;20442;-42
2021/05/16 07:38:14;;;;;;;2.53;1.07;;;17.10;55.60;;;;;;4999048;28;20717;-41
2021/05/16 07:40:40;;;;;;;0.87;0.80;;;17.20;55.80;;;;;;5012296;28;20198;-41
2021/05/16 07:43:07;;;;;;;2.00;1.03;;;17.30;55.70;;;;;;5013470;28;20190;-41
2021/05/16 07:45:33;;;;;;;1.50;0.93;;;17.30;56.10;;;;;;5011903;28;20208;-41
2021/05/16 07:47:58;;;;;;;2.00;0.97;;;17.20;56.10;;;;;;5013257;28;20773;-41
2021/05/16 07:50:24;;;;;;;3.70;1.37;;;17.10;55.90;;;;;;4996309;28;20501;-41
2021/05/16 07:52:50;;;;;;;3.03;1.30;;;17.20;56.00;;;;;;4993655;28;20198;-41
2021/05/16 07:55:15;;;;;;;1.83;0.80;;;17.20;55.30;;;;;;4994102;28;20191;-41
2021/05/16 07:57:41;;;;;;;1.47;0.97;;;17.10;54.90;;;;;;5005131;28;20237;-41
2021/05/16 08:00:11;;;;;;;2.67;0.90;;;17.20;55.70;;;;;;4996349;28;20212;-41
2021/05/16 08:02:39;;;;;;;1.70;0.80;;;17.30;55.20;;;;;;4993652;28;20944;-41
2021/05/16 08:05:05;;;;;;;3.00;0.90;;;17.30;54.20;;;;;;4993881;28;20442;-42
2021/05/16 08:07:31;;;;;;;2.20;0.90;;;17.50;54.60;;;;;;5000614;28;20515;-41
2021/05/16 08:09:56;;;;;;;1.40;0.80;;;17.60;54.50;;;;;;5009209;28;20513;-41
2021/05/16 08:12:22;;;;;;;4.00;1.67;;;17.60;54.10;;;;;;4993599;28;20666;-41
2021/05/16 08:14:47;;;;;;;2.60;1.13;;;17.50;53.70;;;;;;4994023;28;20210;-41
2021/05/16 08:17:14;;;;;;;1.77;1.03;;;17.70;53.80;;;;;;4993247;28;20305;-41
2021/05/16 08:19:40;;;;;;;2.30;0.87;;;17.70;53.30;;;;;;5012724;28;20608;-42
2021/05/16 08:22:09;;;;;;;3.00;1.50;;;17.90;52.70;;;;;;5001653;28;20426;-41
2021/05/16 08:24:35;;;;;;;2.13;1.10;;;17.80;52.20;;;;;;5002271;28;20433;-40
2021/05/16 08:27:01;;;;;;;3.17;1.20;;;17.60;53.40;;;;;;5012618;28;20474;-41
2021/05/16 08:29:26;;;;;;;2.10;1.00;;;17.10;55.50;;;;;;5007078;28;20221;-41
2021/05/16 08:31:54;;;;;;;3.67;1.20;;;17.10;55.50;;;;;;4993366;28;20766;-41
2021/05/16 08:34:19;;;;;;;3.70;1.50;;;17.00;55.80;;;;;;4992626;28;20650;-40
2021/05/16 08:36:45;;;;;;;1.27;1.03;;;16.90;56.40;;;;;;5003519;28;20481;-41
2021/05/16 08:39:10;;;;;;;4.20;1.10;;;16.90;56.50;;;;;;4988131;28;595903;-41
2021/05/16 08:41:37;;;;;;;4.47;1.13;;;16.90;56.70;;;;;;5009763;28;20244;-42
2021/05/16 08:44:03;;;;;;;3.07;1.27;;;17.00;56.90;;;;;;5008105;28;20194;-41
2021/05/16 08:46:30;;;;;;;2.40;1.00;;;17.00;56.80;;;;;;5008455;28;20590;-41
2021/05/16 08:48:56;;;;;;;2.40;0.90;;;17.10;56.90;;;;;;5012692;28;20449;-42
2021/05/16 08:51:22;;;;;;;3.40;1.30;;;17.30;56.90;;;;;;5006659;28;20971;-44
2021/05/16 08:53:48;;;;;;;2.20;1.13;;;17.30;56.70;;;;;;5011102;28;20436;-43
2021/05/16 08:56:14;;;;;;;2.03;1.10;;;17.50;56.20;;;;;;5007129;28;20968;-43
2021/05/16 08:58:40;;;;;;;3.83;1.47;;;17.60;57.50;;;;;;5012367;28;20437;-40
2021/05/16 09:01:22;;;;;;;2.23;1.23;;;17.80;56.70;;;;;;5013354;28;20442;-41
2021/05/16 09:03:49;;;;;;;1.80;1.20;;;18.10;57.10;;;;;;5010121;28;20202;-41
2021/05/16 09:06:15;;;;;;;1.33;0.97;;;18.30;55.70;;;;;;5007445;28;20797;-41
2021/05/16 09:08:41;;;;;;;2.30;1.20;;;18.60;54.90;;;;;;5007171;28;20510;-40
2021/05/16 09:11:08;;;;;;;3.20;1.00;;;18.90;55.20;;;;;;5011261;28;20460;-41
2021/05/16 09:13:35;;;;;;;1.87;1.40;;;19.10;55.10;;;;;;5011148;28;20552;-42
2021/05/16 09:16:07;;;;;;;2.10;1.00;;;19.20;54.60;;;;;;5005525;28;20465;-43
2021/05/16 09:18:48;;;;;;;2.40;1.13;;;19.40;53.50;;;;;;5008587;28;20448;-41
2021/05/16 09:21:29;;;;;;;1.40;1.00;;;19.60;53.00;;;;;;5009782;28;20441;-40
2021/05/16 09:24:06;;;;;;;5.77;1.80;;;19.80;53.00;;;;;;5006148;28;20441;-41
2021/05/16 09:26:49;;;;;;;4.57;1.80;;;19.90;52.70;;;;;;5010548;28;20449;-42
2021/05/16 09:29:23;;;;;;;1.73;1.30;;;20.20;50.90;;;;;;5006634;28;20522;-41
2021/05/16 09:31:50;;;;;;;3.17;1.20;;;20.10;48.80;;;;;;5011551;28;20464;-40
2021/05/16 09:34:16;;;;;;;2.90;1.10;;;20.20;49.00;;;;;;5012512;28;20475;-41
2021/05/16 09:36:46;;;;;;;3.63;1.13;;;20.30;48.20;;;;;;5003955;28;20473;-42
2021/05/16 09:39:15;;;;;;;3.57;1.13;;;20.10;47.00;;;;;;5008166;28;20467;-42
2021/05/16 09:42:13;;;;;;;3.13;1.73;;;19.80;46.40;;;;;;5013165;28;20445;-45
2021/05/16 09:44:42;;;;;;;3.60;1.63;;;19.70;47.00;;;;;;5012008;28;20831;-45
2021/05/16 09:47:16;;;;;;;2.20;1.20;;;19.60;46.50;;;;;;5009102;28;20814;-41
2021/05/16 09:49:47;;;;;;;4.00;1.20;;;19.50;46.70;;;;;;5011832;28;20447;-41
2021/05/16 09:52:15;;;;;;;2.97;1.30;;;19.50;46.00;;;;;;5006747;28;20444;-41
2021/05/16 09:55:12;;;;;;;3.27;1.17;;;19.60;47.30;;;;;;5011329;28;20444;-42
2021/05/16 09:57:40;;;;;;;3.07;1.00;;;19.80;46.20;;;;;;5007678;28;20499;-44
2021/05/16 10:00:09;;;;;;;2.67;0.83;;;19.90;45.00;;;;;;5010954;28;20444;-42
2021/05/16 10:02:35;;;;;;;4.87;1.47;;;20.10;44.00;;;;;;5008433;28;20437;-43
2021/05/16 10:05:02;;;;;;;6.30;1.17;;;20.10;44.40;;;;;;5011531;28;20433;-43
2021/05/16 10:07:29;;;;;;;3.93;1.37;;;20.10;43.50;;;;;;5011864;28;20854;-44
2021/05/16 10:09:56;;;;;;;3.17;1.40;;;20.00;43.00;;;;;;5006078;28;20432;-42
2021/05/16 10:12:23;;;;;;;4.60;1.20;;;20.10;44.60;;;;;;5012254;28;20425;-42
2021/05/16 10:15:00;;;;;;;1.57;1.00;;;20.40;45.10;;;;;;5005936;28;20436;-44
2021/05/16 10:17:27;;;;;;;1.67;1.10;;;20.40;43.30;;;;;;4998589;28;20497;-42
2021/05/16 10:19:53;;;;;;;5.57;1.23;;;20.10;41.20;;;;;;5004920;28;20511;-43
2021/05/16 10:22:18;;;;;;;2.50;1.20;;;20.10;44.10;;;;;;5010920;28;20451;-42
2021/05/16 10:24:46;;;;;;;5.43;1.47;;;20.10;42.20;;;;;;5010012;28;20433;-43
2021/05/16 10:27:20;;;;;;;2.20;1.20;;;20.20;43.00;;;;;;5010083;28;20674;-44
2021/05/16 10:29:47;;;;;;;3.00;1.47;;;20.20;42.70;;;;;;5011714;28;20952;-42
2021/05/16 10:32:50;;;;;;;2.90;1.30;;;20.00;41.90;;;;;;5011294;28;20444;-42
2021/05/16 10:35:16;;;;;;;3.30;1.30;;;19.80;41.30;;;;;;4997850;28;20448;-44
2021/05/16 10:37:53;;;;;;;2.80;1.30;;;20.10;41.30;;;;;;5008373;28;20493;-44
2021/05/16 10:40:47;;;;;;;3.70;1.33;;;20.30;41.50;;;;;;5008249;28;20445;-46
2021/05/16 10:43:27;;;;;;;2.60;1.20;;;20.70;41.60;;;;;;5006552;28;20464;-46
2021/05/16 10:45:53;;;;;;;3.77;1.50;;;21.00;40.60;;;;;;5010771;28;20459;-45
2021/05/16 10:48:28;;;;;;;1.93;1.33;;;21.10;40.60;;;;;;5010244;28;20913;-44
2021/05/16 10:50:57;;;;;;;1.90;1.10;;;20.90;40.10;;;;;;5010757;28;20193;-43
2021/05/16 10:53:31;;;;;;;3.47;1.50;;;21.10;39.90;;;;;;5011526;28;20834;-43
2021/05/16 10:56:12;;;;;;;3.37;1.00;;;21.20;39.40;;;;;;4998599;28;20442;-45
2021/05/16 10:58:45;;;;;;;2.10;1.40;;;21.20;38.40;;;;;;5001089;28;20460;-44
2021/05/16 11:01:32;;;;;;;3.50;1.03;;;21.00;38.70;;;;;;5014690;28;20445;-47
2021/05/16 11:04:02;;;;;;;3.00;1.20;;;21.00;39.30;;;;;;5005953;28;20448;-47
2021/05/16 11:06:30;;;;;;;1.93;0.93;;;21.30;39.70;;;;;;5008371;28;20442;-46
2021/05/16 11:08:56;;;;;;;1.37;0.90;;;21.60;39.60;;;;;;5006463;28;20444;-48
2021/05/16 11:11:41;;;;;;;2.73;1.07;;;21.80;39.20;;;;;;5008719;28;20448;-47
2021/05/16 11:14:39;;;;;;;3.13;1.33;;;21.90;38.10;;;;;;5009149;28;20200;-48
2021/05/16 11:17:09;;;;;;;3.40;1.50;;;21.50;37.20;;;;;;4978469;28;20571;-46
2021/05/16 11:19:35;;;;;;;2.90;1.10;;;21.50;37.80;;;;;;5006836;28;20472;-46
2021/05/16 11:22:13;;;;;;;1.50;1.00;;;21.60;38.10;;;;;;5010820;28;20481;-48
2021/05/16 11:24:47;;;;;;;1.63;1.10;;;21.90;37.80;;;;;;5003434;28;20485;-44
2021/05/16 11:27:20;;;;;;;1.80;1.23;;;22.30;37.90;;;;;;5009758;28;20448;-43
2021/05/16 11:29:51;;;;;;;2.30;1.13;;;22.50;38.20;;;;;;5003978;28;20942;-44
2021/05/16 11:32:22;;;;;;;3.20;1.30;;;22.50;37.60;;;;;;5004394;28;20441;-43
2021/05/16 11:35:08;;;;;;;6.67;1.43;;;22.60;37.70;;;;;;5003319;28;20443;-44
2021/05/16 11:37:34;;;;;;;3.07;1.30;;;22.70;37.00;;;;;;5007799;28;20492;-42
2021/05/16 11:40:14;;;;;;;3.17;1.20;;;22.70;36.10;;;;;;5010778;28;20444;-43
2021/05/16 11:42:42;;;;;;;1.70;1.00;;;22.90;35.80;;;;;;5009548;28;20943;-42
2021/05/16 11:45:09;;;;;;;3.70;2.73;;;22.90;34.20;;;;;;5009486;28;20436;-43
2021/05/16 11:47:36;;;;;;;2.10;1.10;;;22.90;36.30;;;;;;5010926;28;20532;-44
2021/05/16 11:50:03;;;;;;;2.00;1.10;;;22.90;35.40;;;;;;5010031;28;20437;-42
2021/05/16 11:52:28;;;;;;;1.60;1.00;;;23.00;35.90;;;;;;5007490;28;20433;-44
2021/05/16 11:55:00;;;;;;;1.70;1.43;;;23.10;36.50;;;;;;5010302;28;20464;-42
2021/05/16 11:57:26;;;;;;;2.13;1.23;;;23.50;36.50;;;;;;5000699;28;20678;-45
2021/05/16 11:59:52;;;;;;;2.73;0.93;;;23.80;35.00;;;;;;5005896;28;20511;-43
2021/05/16 12:02:18;;;;;;;1.70;1.00;;;24.00;34.20;;;;;;5003818;28;20449;-42
2021/05/16 12:04:44;;;;;;;2.30;1.10;;;23.90;34.50;;;;;;4998930;28;20433;-42
2021/05/16 12:07:09;;;;;;;3.20;1.27;;;23.80;35.00;;;;;;5003672;28;20191;-44
2021/05/16 12:09:41;;;;;;;2.40;1.40;;;23.80;34.90;;;;;;5000453;28;20187;-43
2021/05/16 12:12:18;;;;;;;1.90;1.10;;;23.90;35.20;;;;;;5008277;28;20224;-43
2021/05/16 12:14:45;;;;;;;3.17;1.57;;;24.00;33.60;;;;;;5007726;28;20928;-42
2021/05/16 12:17:11;;;;;;;1.70;1.10;;;24.00;33.50;;;;;;5009831;28;20849;-42
2021/05/16 12:19:39;;;;;;;1.50;1.00;;;24.00;33.90;;;;;;5009206;28;20441;-43
2021/05/16 12:22:13;;;;;;;3.17;1.63;;;24.10;34.10;;;;;;5001327;28;20226;-42
2021/05/16 12:24:48;;;;;;;2.30;0.90;;;24.20;34.00;;;;;;5007366;28;20444;-44
2021/05/16 12:27:16;;;;;;;3.00;1.27;;;24.30;33.60;;;;;;5012751;28;20931;-43
2021/05/16 12:29:42;;;;;;;1.83;1.27;;;24.20;33.60;;;;;;5005307;28;20441;-43
2021/05/16 12:32:11;;;;;;;1.70;1.00;;;24.10;33.20;;;;;;5004224;28;20433;-43
2021/05/16 12:34:38;;;;;;;1.57;1.30;;;24.10;33.60;;;;;;5006825;28;20433;-43
2021/05/16 12:37:18;;;;;;;1.87;1.10;;;24.10;33.10;;;;;;5005134;28;20529;-43
2021/05/16 12:39:52;;;;;;;2.57;1.47;;;24.10;33.00;;;;;;5006309;28;20904;-44
2021/05/16 12:42:39;;;;;;;3.47;1.10;;;24.10;34.00;;;;;;5003752;28;20440;-45
2021/05/16 12:45:21;;;;;;;0.97;0.87;;;24.20;34.10;;;;;;4999983;28;20948;-45
2021/05/16 12:48:15;;;;;;;2.03;0.80;;;24.00;33.80;;;;;;5008770;28;20532;-44
2021/05/16 12:50:42;;;;;;;3.67;1.17;;;24.00;33.80;;;;;;4996676;28;20441;-45
2021/05/16 12:53:26;;;;;;;2.63;1.73;;;24.10;34.00;;;;;;5004624;28;20453;-45